createdAt,value
2023-04-09T00:00:49.577Z,40.00
2023-04-09T00:03:40.764Z,40.23
2023-04-09T00:06:15.184Z,40.57
2023-04-09T00:08:48.806Z,39.70
2023-04-09T00:11:22.422Z,41.57
2023-04-09T00:13:55.864Z,39.10
2023-04-09T00:16:29.473Z,40.13
2023-04-09T00:19:03.185Z,40.67
2023-04-09T00:21:37.603Z,40.83
2023-04-09T00:24:11.617Z,40.07
2023-04-09T00:26:45.062Z,41.57
2023-04-09T00:29:19.055Z,39.50
2023-04-09T00:31:52.465Z,42.17
2023-04-09T00:34:26.626Z,41.17
2023-04-09T00:37:00.252Z,41.37
2023-04-09T00:39:33.689Z,39.43
2023-04-09T00:42:07.422Z,41.73
2023-04-09T00:44:40.731Z,40.20
2023-04-09T00:47:14.625Z,42.80
2023-04-09T00:49:48.377Z,40.83
2023-04-09T00:52:21.603Z,40.17
2023-04-09T00:54:56.563Z,40.53
2023-04-09T00:57:30.239Z,40.03
2023-04-09T01:00:04.711Z,39.77
2023-04-09T01:02:38.687Z,40.90
2023-04-09T01:05:13.982Z,42.40
2023-04-09T01:08:03.508Z,40.90
2023-04-09T01:10:44.092Z,40.97
2023-04-09T01:13:21.314Z,42.47
2023-04-09T01:15:57.984Z,40.33
2023-04-09T01:18:37.731Z,40.87
2023-04-09T01:21:19.148Z,39.43
2023-04-09T01:24:00.548Z,40.17
2023-04-09T01:27:00.146Z,39.20
2023-04-09T01:29:52.997Z,37.93
2023-04-09T01:32:27.863Z,38.57
2023-04-09T01:35:02.835Z,38.33
2023-04-09T01:37:37.319Z,40.70
2023-04-09T01:40:12.930Z,40.53
2023-04-09T01:42:47.568Z,38.60
2023-04-09T01:45:22.355Z,40.53
2023-04-09T01:47:57.173Z,39.83
2023-04-09T01:50:31.122Z,40.90
2023-04-09T01:53:05.378Z,38.60
2023-04-09T01:55:38.704Z,37.97
2023-04-09T01:58:13.410Z,40.70
2023-04-09T02:00:49.962Z,40.27
2023-04-09T02:03:28.514Z,41.90
2023-04-09T02:06:16.056Z,36.80
2023-04-09T02:08:52.307Z,37.53
2023-04-09T02:11:28.476Z,38.37
2023-04-09T02:14:03.147Z,37.00
2023-04-09T02:16:38.036Z,38.23
2023-04-09T02:19:12.116Z,39.53
2023-04-09T02:21:45.488Z,39.13
2023-04-09T02:24:19.179Z,38.10
2023-04-09T02:26:52.744Z,36.67
2023-04-09T02:29:26.470Z,37.73
2023-04-09T02:31:59.989Z,36.47
2023-04-09T02:34:33.100Z,36.43
2023-04-09T02:37:07.732Z,37.20
2023-04-09T02:39:41.175Z,35.30
2023-04-09T02:42:14.506Z,35.73
2023-04-09T02:44:48.107Z,34.47
2023-04-09T02:47:22.135Z,35.80
2023-04-09T02:49:56.397Z,34.67
2023-04-09T02:52:29.936Z,36.37
2023-04-09T02:55:04.239Z,34.93
2023-04-09T02:57:37.947Z,34.83
2023-04-09T03:00:14.375Z,34.13
2023-04-09T03:02:48.150Z,34.93
2023-04-09T03:05:21.819Z,34.27
2023-04-09T03:07:55.825Z,34.73
2023-04-09T03:10:30.532Z,32.07
2023-04-09T03:13:03.851Z,33.77
2023-04-09T03:15:37.318Z,34.77
2023-04-09T03:18:10.887Z,33.93
2023-04-09T03:20:44.439Z,33.23
2023-04-09T03:23:18.649Z,32.87
2023-04-09T03:26:03.508Z,34.00
2023-04-09T03:28:39.984Z,34.40
2023-04-09T03:31:14.330Z,32.43
2023-04-09T03:33:49.035Z,33.00
2023-04-09T03:36:22.421Z,34.00
2023-04-09T03:39:19.171Z,32.93
2023-04-09T03:41:53.587Z,33.73
2023-04-09T03:44:27.031Z,32.27
2023-04-09T03:47:20.607Z,32.70
2023-04-09T03:49:54.856Z,32.83
2023-04-09T03:52:32.146Z,33.63
2023-04-09T03:55:13.422Z,33.13
2023-04-09T03:57:47.386Z,33.13
2023-04-09T04:00:22.995Z,34.10
2023-04-09T04:03:21.402Z,34.00
2023-04-09T04:06:13.177Z,32.53
2023-04-09T04:08:59.883Z,31.80
2023-04-09T04:11:41.351Z,33.83
2023-04-09T04:14:15.075Z,34.33
2023-04-09T04:16:49.829Z,34.07
2023-04-09T04:19:25.166Z,33.23
2023-04-09T04:21:59.239Z,34.47
2023-04-09T04:24:32.948Z,35.30
2023-04-09T04:27:08.183Z,34.17
2023-04-09T04:29:42.400Z,35.25
2023-04-09T04:32:30.259Z,35.53
2023-04-09T04:35:05.375Z,35.73
2023-04-09T04:37:40.649Z,35.73
2023-04-09T04:40:15.028Z,36.33
2023-04-09T04:42:48.730Z,37.03
2023-04-09T04:45:22.684Z,36.20
2023-04-09T04:48:04.893Z,38.02
2023-04-09T04:50:38.649Z,37.43
2023-04-09T04:53:14.904Z,38.47
2023-04-09T04:55:53.476Z,35.67
2023-04-09T04:58:30.974Z,38.00
2023-04-09T05:01:05.362Z,38.57
2023-04-09T05:03:39.600Z,39.13
2023-04-09T05:06:29.961Z,38.63
2023-04-09T05:09:03.770Z,39.77
2023-04-09T05:11:44.527Z,39.20
2023-04-09T05:14:22.606Z,39.27
2023-04-09T05:16:56.583Z,41.23
2023-04-09T05:19:33.496Z,38.67
2023-04-09T05:22:08.314Z,40.37
2023-04-09T05:24:41.750Z,42.13
2023-04-09T05:27:15.681Z,41.93
2023-04-09T05:29:49.943Z,42.33
2023-04-09T05:32:24.047Z,41.00
2023-04-09T05:34:57.547Z,40.70
2023-04-09T05:37:31.860Z,40.50
2023-04-09T05:40:05.720Z,40.60
2023-04-09T05:42:39.462Z,41.87
2023-04-09T05:45:19.531Z,39.70
2023-04-09T05:47:56.027Z,40.67
2023-04-09T05:50:29.877Z,37.73
2023-04-09T05:53:03.703Z,38.53
2023-04-09T05:55:43.598Z,38.10
2023-04-09T05:58:17.562Z,37.53
2023-04-09T06:00:51.890Z,37.37
2023-04-09T06:03:26.320Z,37.53
2023-04-09T06:06:00.401Z,35.53
2023-04-09T06:08:34.408Z,35.33
2023-04-09T06:11:12.326Z,35.80
2023-04-09T06:13:45.704Z,34.57
2023-04-09T06:16:19.231Z,33.70
2023-04-09T06:18:54.798Z,34.17
2023-04-09T06:21:28.462Z,31.27
2023-04-09T06:24:01.637Z,30.57
2023-04-09T06:26:35.190Z,31.07
2023-04-09T06:29:08.941Z,31.33
2023-04-09T06:31:42.689Z,29.40
2023-04-09T06:34:15.667Z,29.80
2023-04-09T06:36:48.921Z,30.55
2023-04-09T06:39:22.316Z,31.90
2023-04-09T06:41:55.786Z,32.97
2023-04-09T06:44:45.081Z,32.27
2023-04-09T06:47:18.685Z,32.93
2023-04-09T06:49:52.361Z,32.70
2023-04-09T06:52:25.770Z,33.03
2023-04-09T06:54:59.143Z,34.47
2023-04-09T06:57:32.810Z,32.13
2023-04-09T07:00:06.912Z,34.10
2023-04-09T07:02:40.647Z,33.73
2023-04-09T07:05:14.666Z,34.00
2023-04-09T07:07:47.956Z,33.30
2023-04-09T07:10:21.894Z,30.87
2023-04-09T07:12:55.528Z,28.40
2023-04-09T07:15:29.572Z,28.63
2023-04-09T07:18:03.050Z,30.93
2023-04-09T07:20:36.281Z,28.80
2023-04-09T07:23:09.685Z,27.63
2023-04-09T07:25:43.920Z,28.13
2023-04-09T07:28:17.368Z,28.77
2023-04-09T07:30:51.096Z,28.73
2023-04-09T07:33:25.723Z,28.30
2023-04-09T07:35:59.540Z,28.37
2023-04-09T07:38:33.532Z,26.10
2023-04-09T07:41:07.037Z,25.20
2023-04-09T07:43:40.399Z,26.50
2023-04-09T07:46:19.877Z,27.57
2023-04-09T07:48:53.460Z,28.67
2023-04-09T07:51:28.242Z,28.00
2023-04-09T07:54:01.332Z,28.87
2023-04-09T07:56:34.879Z,29.07
2023-04-09T07:59:08.275Z,26.17
2023-04-09T08:01:42.155Z,25.03
2023-04-09T08:04:16.012Z,26.07
2023-04-09T08:06:50.900Z,26.43
2023-04-09T08:09:25.129Z,25.50
2023-04-09T08:11:58.941Z,25.30
2023-04-09T08:14:32.595Z,24.77
2023-04-09T08:17:06.001Z,24.67
2023-04-09T08:19:41.789Z,23.30
2023-04-09T08:22:15.806Z,20.03
2023-04-09T08:24:54.576Z,21.47
2023-04-09T08:27:28.121Z,20.70
2023-04-09T08:30:02.755Z,20.03
2023-04-09T08:32:36.595Z,19.23
2023-04-09T08:35:11.854Z,20.17
2023-04-09T08:37:45.460Z,19.23
2023-04-09T08:40:19.593Z,19.10
2023-04-09T08:42:58.448Z,20.13
2023-04-09T08:45:31.954Z,19.73
2023-04-09T08:48:07.063Z,19.77
2023-04-09T08:50:40.436Z,18.27
2023-04-09T08:53:15.173Z,18.60
2023-04-09T08:55:50.161Z,18.40
2023-04-09T08:58:23.696Z,23.53
2023-04-09T09:00:57.410Z,19.87
2023-04-09T09:03:30.917Z,19.50
2023-04-09T09:06:04.389Z,17.53
2023-04-09T09:08:37.659Z,17.70
2023-04-09T09:11:11.385Z,17.43
2023-04-09T09:13:44.780Z,15.03
2023-04-09T09:16:18.700Z,16.90
2023-04-09T09:18:53.384Z,16.37
2023-04-09T09:21:29.510Z,17.07
2023-04-09T09:24:02.864Z,16.50
2023-04-09T09:26:42.239Z,17.23
2023-04-09T09:29:15.797Z,18.20
2023-04-09T09:31:53.277Z,17.63
2023-04-09T09:34:27.784Z,18.03
2023-04-09T09:37:00.860Z,17.77
2023-04-09T09:39:46.237Z,17.90
2023-04-09T09:42:19.836Z,17.10
2023-04-09T09:44:54.805Z,16.53
2023-04-09T09:47:31.530Z,15.93
2023-04-09T09:50:05.077Z,15.17
2023-04-09T09:52:40.092Z,15.63
2023-04-09T09:55:17.461Z,15.50
2023-04-09T09:57:53.358Z,14.97
2023-04-09T10:00:27.878Z,13.73
2023-04-09T10:03:07.495Z,14.33
2023-04-09T10:05:42.146Z,13.63
2023-04-09T10:08:16.495Z,13.63
2023-04-09T10:10:50.763Z,12.50
2023-04-09T10:13:32.672Z,14.20
2023-04-09T10:16:07.625Z,14.70
2023-04-09T10:18:42.936Z,15.60
2023-04-09T10:21:27.183Z,14.10
2023-04-09T10:24:05.769Z,13.63
2023-04-09T10:26:41.803Z,13.87
2023-04-09T10:29:16.885Z,12.70
2023-04-09T10:31:53.122Z,12.60
2023-04-09T10:34:29.605Z,13.07
2023-04-09T10:37:02.910Z,12.83
2023-04-09T10:39:40.564Z,13.37
2023-04-09T10:42:19.763Z,13.47
2023-04-09T10:45:09.224Z,12.70
2023-04-09T10:47:44.108Z,13.57
2023-04-09T10:50:26.791Z,11.93
2023-04-09T10:53:02.216Z,14.20
2023-04-09T10:55:38.465Z,12.97
2023-04-09T10:58:13.951Z,12.90
2023-04-09T11:00:49.205Z,12.03
2023-04-09T11:03:30.812Z,14.67
2023-04-09T11:06:09.550Z,14.17
2023-04-09T11:08:46.399Z,12.67
2023-04-09T11:11:19.722Z,11.40
2023-04-09T11:13:53.111Z,14.53
2023-04-09T11:16:29.258Z,13.63
2023-04-09T11:19:03.211Z,12.07
2023-04-09T11:21:36.608Z,12.37
2023-04-09T11:24:10.923Z,11.20
2023-04-09T11:26:44.438Z,10.30
2023-04-09T11:29:18.303Z,12.13
2023-04-09T11:31:51.727Z,11.50
2023-04-09T11:34:28.683Z,12.27
2023-04-09T11:37:07.600Z,13.83
2023-04-09T11:39:42.658Z,13.70
2023-04-09T11:42:19.102Z,13.20
2023-04-09T11:44:52.336Z,9.27
2023-04-09T11:47:27.569Z,8.87
2023-04-09T11:50:02.071Z,9.13
2023-04-09T11:52:36.232Z,9.87
2023-04-09T11:55:11.175Z,12.77
2023-04-09T11:57:47.047Z,10.97
2023-04-09T12:00:21.363Z,9.70
2023-04-09T12:03:00.930Z,10.90
2023-04-09T12:05:36.366Z,10.87
2023-04-09T12:08:11.638Z,9.73
2023-04-09T12:10:45.743Z,9.00
2023-04-09T12:13:19.298Z,10.83
2023-04-09T12:15:53.969Z,10.87
2023-04-09T12:18:28.412Z,11.10
2023-04-09T12:21:02.983Z,9.77
2023-04-09T12:23:36.779Z,9.97
2023-04-09T12:26:10.159Z,9.13
2023-04-09T12:28:43.425Z,9.90
2023-04-09T12:31:16.661Z,9.80
2023-04-09T12:33:50.134Z,11.60
2023-04-09T12:36:24.075Z,11.17
2023-04-09T12:38:57.426Z,10.30
2023-04-09T12:41:31.627Z,10.73
2023-04-09T12:44:07.486Z,10.30
2023-04-09T12:46:40.859Z,10.60
2023-04-09T12:49:14.856Z,11.20
2023-04-09T12:51:48.053Z,11.43
2023-04-09T12:54:21.810Z,11.80
2023-04-09T12:56:55.276Z,11.03
2023-04-09T12:59:29.072Z,11.37
2023-04-09T13:02:02.693Z,11.23
2023-04-09T13:04:36.496Z,10.53
2023-04-09T13:07:09.760Z,10.67
2023-04-09T13:09:43.409Z,10.90
2023-04-09T13:12:17.096Z,11.10
2023-04-09T13:14:51.252Z,11.27
2023-04-09T13:17:24.675Z,11.53
2023-04-09T13:19:58.215Z,11.47
2023-04-09T13:22:31.640Z,11.90
2023-04-09T13:25:06.029Z,11.30
2023-04-09T13:27:39.210Z,12.13
2023-04-09T13:30:14.221Z,12.53
2023-04-09T13:32:48.079Z,12.20
2023-04-09T13:35:22.477Z,12.57
2023-04-09T13:37:55.995Z,12.57
2023-04-09T13:40:29.262Z,11.77
2023-04-09T13:43:02.867Z,11.47
2023-04-09T13:45:36.609Z,11.07
2023-04-09T13:48:12.279Z,11.00
2023-04-09T13:50:47.620Z,10.63
2023-04-09T13:53:24.004Z,72.70
2023-04-09T13:55:57.408Z,165.83
2023-04-09T13:58:30.659Z,102.87
2023-04-09T14:01:04.731Z,134.93
2023-04-09T14:03:42.166Z,290.73
2023-04-09T14:06:15.700Z,967.70
2023-04-09T14:08:48.890Z,331.63
2023-04-09T14:11:22.286Z,180.33
2023-04-09T14:13:56.137Z,334.43
2023-04-09T14:16:30.750Z,169.77
2023-04-09T14:19:04.336Z,538.67
2023-04-09T14:21:37.914Z,148.03
2023-04-09T14:24:11.158Z,141.77
2023-04-09T14:26:44.702Z,702.40
2023-04-09T14:29:18.669Z,999.90
2023-04-09T14:31:53.522Z,999.90
2023-04-09T14:34:28.140Z,999.90
2023-04-09T14:37:01.428Z,974.77
2023-04-09T14:39:34.823Z,861.00
2023-04-09T14:42:08.352Z,998.27
2023-04-09T14:44:42.666Z,934.43
2023-04-09T14:47:16.245Z,773.50
2023-04-09T14:49:49.613Z,651.67
2023-04-09T14:52:23.590Z,999.90
2023-04-09T14:54:56.825Z,999.90
2023-04-09T14:57:30.162Z,848.97
2023-04-09T15:00:04.298Z,952.10
2023-04-09T15:02:38.859Z,829.23
2023-04-09T15:05:14.769Z,575.43
2023-04-09T15:07:48.040Z,320.90
2023-04-09T15:10:23.337Z,119.40
2023-04-09T15:12:57.080Z,47.03
2023-04-09T15:15:31.589Z,94.17
2023-04-09T15:18:06.454Z,73.90
2023-04-09T15:20:43.642Z,35.87
2023-04-09T15:23:17.494Z,21.50
2023-04-09T15:25:52.125Z,24.27
2023-04-09T15:28:25.645Z,30.03
2023-04-09T15:30:59.579Z,24.20
2023-04-09T15:33:33.862Z,14.83
2023-04-09T15:36:08.778Z,21.30
2023-04-09T15:38:42.414Z,16.20
2023-04-09T15:41:17.218Z,17.23
2023-04-09T15:43:51.958Z,16.30
2023-04-09T15:46:26.371Z,11.50
2023-04-09T15:49:00.023Z,12.97
2023-04-09T15:51:33.414Z,14.07
2023-04-09T15:54:07.448Z,14.70
2023-04-09T15:56:41.288Z,12.40
2023-04-09T15:59:16.522Z,13.43
2023-04-09T16:01:50.000Z,12.53
2023-04-09T16:04:24.484Z,19.77
2023-04-09T16:06:57.858Z,13.17
2023-04-09T16:09:31.239Z,11.23
2023-04-09T16:12:04.837Z,11.00
2023-04-09T16:14:39.455Z,12.30
2023-04-09T16:17:12.684Z,12.00
2023-04-09T16:19:46.246Z,11.90
2023-04-09T16:22:19.401Z,13.00
2023-04-09T16:24:53.104Z,12.43
2023-04-09T16:27:26.946Z,13.43
2023-04-09T16:30:01.320Z,15.47
2023-04-09T16:32:34.878Z,12.70
2023-04-09T16:35:09.890Z,14.27
2023-04-09T16:37:43.695Z,12.93
2023-04-09T16:40:20.783Z,14.37
2023-04-09T16:42:55.101Z,15.27
2023-04-09T16:45:29.016Z,16.13
2023-04-09T16:48:02.503Z,17.17
2023-04-09T16:50:36.562Z,16.80
2023-04-09T16:53:10.280Z,20.27
2023-04-09T16:55:45.058Z,23.97
2023-04-09T16:58:18.630Z,20.47
2023-04-09T17:00:52.362Z,17.37
2023-04-09T17:03:26.437Z,20.10
2023-04-09T17:06:00.258Z,19.20
2023-04-09T17:08:33.546Z,16.43
2023-04-09T17:11:07.451Z,15.80
2023-04-09T17:13:40.844Z,15.27
2023-04-09T17:16:15.658Z,14.30
2023-04-09T17:18:49.069Z,14.70
2023-04-09T17:21:22.275Z,13.77
2023-04-09T17:23:56.267Z,13.80
2023-04-09T17:26:30.075Z,13.90
2023-04-09T17:29:03.201Z,13.67
2023-04-09T17:31:36.683Z,13.80
2023-04-09T17:34:11.133Z,14.40
2023-04-09T17:36:47.127Z,13.47
2023-04-09T17:39:20.554Z,13.20
2023-04-09T17:41:58.822Z,14.13
2023-04-09T17:44:35.348Z,13.80
2023-04-09T17:47:09.111Z,13.60
2023-04-09T17:49:42.921Z,13.03
2023-04-09T17:52:16.490Z,14.43
2023-04-09T17:54:50.935Z,15.27
2023-04-09T17:57:24.745Z,21.23
2023-04-09T17:59:58.552Z,30.47
2023-04-09T18:02:32.676Z,42.20
2023-04-09T18:05:07.711Z,38.00
2023-04-09T18:07:41.392Z,32.57
2023-04-09T18:10:15.686Z,29.13
2023-04-09T18:12:49.405Z,32.43
2023-04-09T18:15:25.065Z,24.20
2023-04-09T18:17:58.557Z,22.97
2023-04-09T18:20:33.865Z,20.35
2023-04-09T18:23:07.503Z,21.70
2023-04-09T18:25:40.731Z,21.73
2023-04-09T18:28:14.284Z,21.77
2023-04-09T18:30:47.755Z,21.27
2023-04-09T18:33:21.451Z,26.40
2023-04-09T18:35:55.149Z,24.17
2023-04-09T18:38:30.180Z,22.27
2023-04-09T18:41:04.990Z,21.77
2023-04-09T18:43:41.138Z,23.13
2023-04-09T18:46:14.734Z,22.60
2023-04-09T18:48:48.537Z,24.40
2023-04-09T18:51:22.208Z,23.33
2023-04-09T18:53:56.102Z,24.73
2023-04-09T18:56:30.533Z,24.93
2023-04-09T18:59:03.858Z,24.40
2023-04-09T19:01:37.915Z,23.27
2023-04-09T19:04:11.302Z,25.67
2023-04-09T19:06:46.329Z,25.43
2023-04-09T19:09:20.479Z,29.40
2023-04-09T19:11:54.344Z,31.00
2023-04-09T19:14:27.888Z,26.87
2023-04-09T19:17:02.718Z,26.03
2023-04-09T19:19:36.315Z,29.47
2023-04-09T19:22:09.916Z,31.00
2023-04-09T19:24:44.607Z,31.03
2023-04-09T19:27:19.160Z,27.90
2023-04-09T19:29:53.376Z,28.13
2023-04-09T19:32:26.904Z,29.07
2023-04-09T19:35:00.255Z,30.00
2023-04-09T19:37:33.291Z,31.33
2023-04-09T19:40:08.546Z,31.43
2023-04-09T19:42:42.198Z,26.43
2023-04-09T19:45:16.015Z,23.93
2023-04-09T19:47:49.629Z,23.93
2023-04-09T19:50:22.798Z,21.60
2023-04-09T19:52:58.961Z,22.00
2023-04-09T19:55:32.583Z,23.13
2023-04-09T19:58:06.945Z,51.30
2023-04-09T20:00:40.223Z,62.73
2023-04-09T20:03:13.883Z,53.40
2023-04-09T20:05:49.305Z,57.90
2023-04-09T20:08:22.751Z,56.97
2023-04-09T20:10:56.156Z,49.10
2023-04-09T20:13:29.682Z,45.53
2023-04-09T20:16:03.090Z,47.47
2023-04-09T20:18:36.879Z,56.00
2023-04-09T20:21:14.565Z,52.23
2023-04-09T20:23:47.968Z,49.77
2023-04-09T20:26:21.377Z,38.70
2023-04-09T20:28:55.160Z,31.07
2023-04-09T20:31:29.230Z,28.77
2023-04-09T20:34:03.094Z,27.30
2023-04-09T20:36:37.835Z,24.33
2023-04-09T20:39:11.404Z,23.90
2023-04-09T20:41:45.029Z,24.47
2023-04-09T20:44:18.476Z,23.33
2023-04-09T20:46:52.655Z,20.97
2023-04-09T20:49:26.034Z,21.50
2023-04-09T20:51:59.612Z,22.20
2023-04-09T20:54:33.228Z,20.90
2023-04-09T20:57:07.024Z,20.40
2023-04-09T20:59:40.934Z,20.47
2023-04-09T21:02:15.769Z,19.50
2023-04-09T21:04:49.451Z,20.97
2023-04-09T21:07:23.048Z,20.57
2023-04-09T21:09:56.648Z,20.17
2023-04-09T21:12:30.212Z,20.43
2023-04-09T21:15:03.309Z,19.90
2023-04-09T21:17:37.085Z,20.40
2023-04-09T21:20:13.185Z,20.30
2023-04-09T21:22:46.073Z,20.33
2023-04-09T21:25:19.686Z,20.33
2023-04-09T21:27:53.147Z,20.47
2023-04-09T21:30:26.681Z,20.03
2023-04-09T21:33:01.500Z,20.30
2023-04-09T21:35:36.080Z,20.77
2023-04-09T21:38:09.379Z,20.10
2023-04-09T21:40:42.516Z,21.60
2023-04-09T21:43:17.144Z,21.20
2023-04-09T21:45:51.211Z,21.73
2023-04-09T21:48:24.814Z,21.50
2023-04-09T21:50:58.498Z,19.83
2023-04-09T21:53:33.667Z,22.60
2023-04-09T21:56:07.692Z,20.07
2023-04-09T21:58:41.407Z,21.50
2023-04-09T22:01:26.291Z,21.23
2023-04-09T22:04:03.761Z,21.13
2023-04-09T22:06:37.279Z,20.83
2023-04-09T22:09:10.589Z,20.73
2023-04-09T22:11:44.140Z,21.40
2023-04-09T22:14:18.150Z,21.07
2023-04-09T22:16:51.349Z,20.80
2023-04-09T22:19:24.760Z,20.93
2023-04-09T22:21:58.799Z,21.47
2023-04-09T22:24:32.346Z,21.55
2023-04-09T22:27:06.067Z,19.80
2023-04-09T22:29:39.546Z,20.93
2023-04-09T22:32:13.747Z,21.47
2023-04-09T22:34:47.064Z,20.07
2023-04-09T22:37:20.184Z,21.60
2023-04-09T22:39:53.732Z,21.97
2023-04-09T22:42:27.554Z,21.07
2023-04-09T22:45:01.339Z,20.90
2023-04-09T22:47:35.976Z,20.80
2023-04-09T22:50:13.627Z,21.70
2023-04-09T22:52:46.863Z,20.87
2023-04-09T22:55:21.863Z,20.97
2023-04-09T22:57:55.160Z,21.20
2023-04-09T23:00:29.296Z,21.67
2023-04-09T23:03:03.721Z,22.33
2023-04-09T23:05:37.721Z,21.33
2023-04-09T23:08:11.702Z,21.83
2023-04-09T23:10:45.113Z,22.63
2023-04-09T23:13:18.511Z,22.93
2023-04-09T23:15:52.136Z,23.20
2023-04-09T23:18:26.327Z,22.60
2023-04-09T23:20:59.713Z,21.60
2023-04-09T23:23:33.519Z,22.33
2023-04-09T23:26:08.555Z,22.67
2023-04-09T23:28:41.795Z,23.57
2023-04-09T23:31:15.171Z,22.67
2023-04-09T23:33:49.221Z,22.77
2023-04-09T23:36:24.325Z,23.20
2023-04-09T23:38:57.620Z,22.47
2023-04-09T23:41:31.380Z,22.13
2023-04-09T23:44:04.773Z,23.03
2023-04-09T23:46:38.464Z,23.87
2023-04-09T23:49:12.788Z,23.67
2023-04-09T23:51:46.595Z,25.13
2023-04-09T23:54:20.265Z,24.87
2023-04-09T23:56:53.584Z,25.47
2023-04-09T23:59:27.858Z,25.10
